Latest Weather Observations for Larapuna (Eddystone Point)

IDT60801

Issued at 6:32 am EDT Wednesday 29 March 2017 (issued every 30 minutes, with the page automatically refreshed every 10 minutes)

About weather observations | Map of weather stations | Latest weather observations for TAS | Other Formats
Station Details ID: 092045 Name: LARAPUNA (EDDYSTONE POINT) Lat: -40.99 Lon: 148.35 Height: 19.7 m
Data from the previous 72 hours. | See also: Recent months at Larapuna (Eddystone Point)
Date/Time
EDT
Temp
°C
App
Temp
°C
Dew
Point
°C
Rel
Hum
%
Delta-T
°C
Wind Press
QNH
hPa
Press
MSL
hPa
Rain since
9am
mm
Dir  Spd
km/h
Gust
km/h
Spd
kts
Gust
kts
29/06:30am 17.2 12.2 13.3 78 2.2 NNW 32 43 17 23 1007.4 1007.4 0.0
29/06:00am 17.3 12.7 13.4 78 2.2 NNW 30 39 16 21 1007.4 1007.4 0.0
29/05:30am 17.2 12.2 13.3 78 2.2 NNW 32 41 17 22 1007.4 1007.4 0.0
29/05:00am 17.1 13.1 13.0 77 2.3 NNW 26 39 14 21 1007.5 1007.5 0.0
29/04:30am 17.1 12.1 12.2 73 2.7 NW 30 39 16 21 1007.5 1007.5 0.0
29/04:00am 16.9 13.2 12.8 77 2.3 NNW 24 32 13 17 1007.8 1007.8 0.0
29/03:30am 16.3 13.0 12.7 79 2.0 NNW 22 30 12 16 1008.1 1008.1 0.0
29/03:00am 16.2 12.3 12.2 77 2.2 NW 24 32 13 17 1008.4 1008.4 0.0
29/02:30am 16.3 12.4 12.1 76 2.3 NW 24 32 13 17 1008.5 1008.5 0.0
29/02:00am 16.3 11.7 11.2 72 2.7 NW 26 32 14 17 1008.6 1008.6 0.0
29/01:30am 16.3 12.8 10.8 70 2.9 NW 20 30 11 16 1008.6 1008.6 0.0
29/01:00am 16.5 12.4 11.6 73 2.7 NW 24 33 13 18 1009.0 1009.0 0.0
29/12:30am 16.9 13.2 12.8 77 2.3 NW 24 35 13 19 1009.3 1009.3 0.0
29/12:00am 16.9 13.6 12.8 77 2.3 NW 22 32 12 17 1009.5 1009.5 0.0
 
Date/Time
EDT
Temp
°C
App
Temp
°C
Dew
Point
°C
Rel
Hum
%
Delta-T
°C
Wind Press
QNH
hPa
Press
MSL
hPa
Rain since
9am
mm
Dir  Spd
km/h
Gust
km/h
Spd
kts
Gust
kts
28/11:30pm 16.4 12.8 12.0 75 2.4 NW 22 33 12 18 1009.6 1009.6 0.0
28/11:00pm 16.4 12.0 11.6 73 2.6 WNW 26 37 14 20 1009.7 1009.7 0.0
28/10:30pm 16.3 12.7 11.7 74 2.5 NW 22 28 12 15 1009.6 1009.6 0.0
28/10:00pm 16.3 12.2 11.5 73 2.6 WNW 24 33 13 18 1009.8 1009.8 0.0
28/09:30pm 16.2 11.4 11.6 74 2.5 WNW 28 37 15 20 1009.7 1009.7 0.0
28/09:00pm 16.2 11.8 11.8 75 2.4 WNW 26 32 14 17 1009.4 1009.4 0.0
28/08:30pm 16.3 12.2 11.5 73 2.6 WNW 24 32 13 17 1009.2 1009.2 0.0
28/08:00pm 16.5 11.8 11.9 74 2.5 WNW 28 37 15 20 1008.9 1008.9 0.0
28/07:30pm 17.0 12.4 12.3 74 2.6 WNW 28 43 15 23 1008.6 1008.6 0.0
28/07:00pm 17.3 12.6 12.0 71 2.9 WNW 28 39 15 21 1008.7 1008.7 0.0
28/06:30pm 18.0 13.6 11.6 66 3.5 WNW 26 35 14 19 1008.5 1008.5 0.0
28/06:00pm 18.9 13.4 11.7 63 4.0 WNW 32 52 17 28 1008.2 1008.2 0.0
28/05:30pm 19.4 13.4 12.2 63 4.0 WNW 35 54 19 29 1008.0 1008.0 0.0
28/05:00pm 19.4 12.8 11.2 59 4.5 WNW 37 59 20 32 1007.6 1007.6 0.0
28/04:35pm 20.1 13.7 12.1 60 4.5 WNW 37 56 20 30 1007.5 1007.5 0.0
28/04:30pm 20.0 12.8 12.0 60 4.5 WNW 41 57 22 31 1007.5 1007.5 0.0
28/04:08pm 20.0 12.2 11.8 59 4.6 WNW 44 63 24 34 1007.2 1007.2 0.0
28/04:00pm 20.2 11.9 11.4 57 4.9 WNW 46 63 25 34 1007.0 1007.0 0.0
28/03:30pm 20.5 11.3 10.9 54 5.3 WNW 50 72 27 39 1006.9 1006.9 0.0
28/03:00pm 20.5 11.9 11.7 57 4.9 WNW 48 69 26 37 1007.1 1007.1 0.0
28/02:36pm 20.8 12.8 10.6 52 5.6 WNW 43 61 23 33 1007.5 1007.5 0.0
28/02:30pm 20.6 11.7 10.7 53 5.4 WNW 48 61 26 33 1007.5 1007.5 0.0
28/02:00pm 20.2 12.0 10.3 53 5.4 WNW 44 65 24 35 1008.1 1008.1 0.0
28/01:32pm 20.1 13.0 10.8 55 5.1 WNW 39 57 21 31 1008.3 1008.3 0.0
28/01:30pm 20.3 12.8 11.0 55 5.1 WNW 41 57 22 31 1008.3 1008.3 0.0
28/01:04pm 19.6 11.6 10.6 56 4.9 WNW 43 61 23 33 1008.6 1008.6 0.0
28/01:00pm 20.5 12.0 10.6 53 5.4 WNW 46 61 25 33 1008.6 1008.6 0.0
28/12:30pm 19.6 12.4 11.9 61 4.3 WNW 41 59 22 32 1008.8 1008.8 0.0
28/12:00pm 19.3 12.3 11.3 60 4.4 WNW 39 57 21 31 1008.9 1008.9 0.0
28/11:30am 18.5 11.8 12.3 67 3.4 WNW 39 65 21 35 1008.8 1008.8 0.0
28/11:00am 19.1 12.6 11.7 62 4.1 WNW 37 59 20 32 1009.2 1009.2 0.0
28/10:34am 18.4 12.4 12.2 67 3.4 NW 35 56 19 30 1009.3 1009.3 0.0
28/10:30am 18.3 12.7 12.1 67 3.4 NW 33 48 18 26 1009.4 1009.4 0.0
28/10:00am 18.0 13.3 12.0 68 3.3 WNW 28 52 15 28 1009.5 1009.5 0.0
28/09:36am 17.5 11.8 11.3 67 3.4 WNW 32 54 17 29 1008.9 1008.9 0.0
28/09:30am 17.5 11.9 11.5 68 3.3 WNW 32 46 17 25 1008.8 1008.8 0.0
28/09:12am 17.2 12.4 11.5 69 3.1 WNW 28 46 15 25 1008.9 1008.9 0.0
28/09:00am 16.9 12.3 11.2 69 3.1 W 26 46 14 25 1008.9 1008.9 3.2
28/08:30am 15.9 12.7 11.1 73 2.6 W 19 35 10 19 1008.9 1008.9 3.2
28/08:00am 15.9 13.4 10.9 72 2.7 WNW 15 22 8 12 1009.1 1009.1 3.2
28/07:30am 15.1 11.4 10.1 72 2.6 WNW 20 30 11 16 1008.9 1008.9 3.2
28/07:00am 15.0 10.8 11.0 77 2.1 WNW 24 37 13 20 1008.7 1008.7 3.2
28/06:30am 14.8 11.3 11.0 78 2.0 WNW 20 28 11 15 1008.5 1008.5 3.2
28/06:00am 14.6 11.3 10.8 78 2.0 NW 19 28 10 15 1008.1 1008.1 3.2
28/05:30am 14.5 10.2 10.7 78 2.0 NW 24 39 13 21 1007.7 1007.7 3.2
28/05:00am 14.5 11.1 10.5 77 2.1 NW 19 28 10 15 1007.7 1007.7 3.2
28/04:30am 14.3 10.8 10.1 76 2.2 WNW 19 28 10 15 1008.1 1008.1 3.2
28/04:00am 13.8 11.8 10.0 78 2.0 WNW 11 20 6 11 1008.0 1008.0 3.2
28/03:30am 14.0 12.5 10.4 79 1.9 NW 9 15 5 8 1008.2 1008.2 3.2
28/03:00am 13.7 10.0 10.3 80 1.8 WNW 20 28 11 15 1008.2 1008.2 3.2
28/02:30am 14.2 10.9 10.8 80 1.8 WNW 19 26 10 14 1008.3 1008.3 3.2
28/02:00am 14.6 11.4 11.2 80 1.8 NW 19 26 10 14 1008.4 1008.4 3.2
28/01:30am 14.6 11.7 11.0 79 1.9 NW 17 24 9 13 1008.3 1008.3 3.2
28/01:00am 14.7 11.4 10.9 78 2.0 WNW 19 24 10 13 1008.3 1008.3 3.2
28/12:30am 15.2 11.9 11.0 76 2.2 WNW 19 28 10 15 1008.2 1008.2 3.2
28/12:00am 15.3 12.0 10.9 75 2.3 WNW 19 32 10 17 1008.3 1008.3 3.2
 
Date/Time
EDT
Temp
°C
App
Temp
°C
Dew
Point
°C
Rel
Hum
%
Delta-T
°C
Wind Press
QNH
hPa
Press
MSL
hPa
Rain since
9am
mm
Dir  Spd
km/h
Gust
km/h
Spd
kts
Gust
kts
27/11:30pm 15.5 11.7 11.1 75 2.4 WNW 22 32 12 17 1008.0 1008.0 3.2
27/11:00pm 16.1 10.6 11.7 75 2.4 WNW 32 44 17 24 1007.4 1007.4 3.2
27/10:30pm 16.3 10.5 12.8 80 1.9 NW 35 50 19 27 1006.8 1006.8 3.2
27/10:00pm 15.8 11.4 12.9 83 1.6 NW 28 41 15 22 1006.9 1006.9 3.2
27/09:30pm 15.6 13.2 12.7 83 1.6 NNW 17 22 9 12 1007.2 1007.2 3.2
27/09:00pm 14.8 13.4 12.3 85 1.4 NNW 11 15 6 8 1006.6 1006.6 3.2
27/08:30pm 14.7 11.5 12.0 84 1.5 WNW 20 30 11 16 1005.8 1005.8 3.2
27/08:00pm 14.6 10.6 11.9 84 1.5 WNW 24 33 13 18 1005.8 1005.8 3.2
27/07:30pm 14.6 9.1 11.9 84 1.5 WNW 32 46 17 25 1005.0 1005.0 3.2
27/07:03pm 14.5 8.5 12.2 86 1.2 WNW 35 54 19 29 1004.3 1004.3 3.2
27/07:00pm 14.5 8.2 12.2 86 1.3 WNW 37 54 20 29 1004.3 1004.3 3.2
27/06:56pm 14.5 8.6 12.4 87 1.1 WNW 35 54 19 29 1004.1 1004.1 3.2
27/06:30pm 14.3 8.1 12.7 90 0.9 WNW 37 50 20 27 1004.6 1004.6 3.0
27/06:00pm 13.6 6.0 11.8 89 1.0 NW 43 61 23 33 1004.4 1004.4 2.6
27/05:30pm 14.6 6.4 11.6 82 1.6 WNW 46 65 25 35 1004.2 1004.2 1.2
27/05:00pm 18.3 9.6 11.4 64 3.8 WNW 48 76 26 41 1003.2 1003.2 0.4
27/04:57pm 18.6 10.8 11.7 64 3.8 WNW 44 67 24 36 1003.1 1003.1 0.4
27/04:30pm 20.1 10.4 11.8 59 4.6 W 54 100 29 54 1002.1 1002.1 0.4
27/04:23pm 20.7 11.3 11.6 56 5.1 W 52 100 28 54 1002.2 1002.2 0.4
27/04:10pm 20.9 12.5 12.3 58 4.8 W 48 82 26 44 1001.9 1001.9 0.4
27/04:04pm 20.9 13.1 13.1 61 4.5 W 46 63 25 34 1002.0 1002.0 0.4
27/04:00pm 21.0 12.1 13.2 61 4.5 W 52 80 28 43 1002.0 1002.0 0.4
27/03:58pm 21.0 11.9 13.7 63 4.2 W 54 82 29 44 1002.2 1002.2 0.4
27/03:54pm 21.3 11.7 14.0 63 4.2 W 57 82 31 44 1001.9 1001.9 0.4
27/03:51pm 21.2 11.9 14.1 64 4.1 W 56 82 30 44 1001.4 1001.3 0.4
27/03:30pm 21.8 17.0 17.6 77 2.6 NW 39 65 21 35 1001.2 1001.1 0.4
27/03:24pm 21.4 19.1 18.4 83 1.9 NW 28 46 15 25 1001.2 1001.1 0.4
27/03:00pm 19.3 18.1 17.6 90 1.0 N 20 28 11 15 1000.6 1000.5 0.4
27/02:30pm 19.3 15.6 17.4 89 1.2 NNE 33 39 18 21 999.6 999.5 0.4
27/02:24pm 19.3 15.6 17.4 89 1.2 NNE 33 39 18 21 999.8 999.7 0.4
27/02:00pm 19.9 17.2 17.5 86 1.5 N 28 33 15 18 1001.8 1001.7 0.0
27/01:30pm 21.5 20.7 17.9 80 2.2 N 19 24 10 13 1002.3 1002.3 0.0
27/01:00pm 22.0 20.1 18.6 81 2.1 NW 26 32 14 17 1004.0 1004.0 0.0
27/12:30pm 20.8 18.9 17.6 82 2.0 NNW 24 32 13 17 1002.7 1002.7 0.0
27/12:00pm 20.5 17.8 17.5 83 1.8 NNW 28 33 15 18 1002.5 1002.5 0.0
27/11:30am 20.8 19.1 17.2 80 2.2 N 22 28 12 15 1003.5 1003.5 0.0
27/11:00am 22.1 19.9 17.9 77 2.6 N 26 32 14 17 1004.0 1004.0 0.0
27/10:30am 21.3 19.8 17.7 80 2.2 N 22 26 12 14 1005.0 1005.0 0.0
27/10:00am 20.8 19.4 18.0 84 1.7 N 22 28 12 15 1005.7 1005.7 0.0
27/09:30am 20.4 18.0 18.3 88 1.3 N 28 33 15 18 1006.2 1006.2 0.0
27/09:00am 20.1 17.4 18.4 90 1.1 N 30 37 16 20 1006.4 1006.4 0.0
27/08:30am 19.6 19.4 18.4 93 0.7 NNW 17 22 9 12 1006.9 1006.9 0.0
27/08:00am 19.2 19.2 18.0 93 0.7 NNW 15 19 8 10 1007.0 1007.0 0.0
27/07:30am 19.3 18.4 18.3 94 0.6 N 20 26 11 14 1007.5 1007.5 0.0
27/07:00am 19.3 18.4 18.3 94 0.6 N 20 32 11 17 1007.7 1007.7 0.0
27/06:30am 19.2 19.2 18.2 94 0.6 N 15 20 8 11 1008.0 1008.0 0.0
27/06:00am 19.1 19.1 18.1 94 0.6 N 15 19 8 10 1008.4 1008.4 0.0
27/05:30am 19.2 19.2 18.2 94 0.6 N 15 19 8 10 1008.5 1008.5 0.0
27/05:00am 18.8 18.7 17.8 94 0.6 NNE 15 20 8 11 1008.8 1008.8 0.0
27/04:30am 18.7 20.0 17.5 93 0.7 N 7 11 4 6 1009.4 1009.4 0.0
27/04:00am 18.5 19.8 17.5 94 0.6 N 7 11 4 6 1010.1 1010.1 0.0
27/03:30am 18.1 19.7 17.0 93 0.7 NE 4 7 2 4 1010.6 1010.6 0.0
27/03:00am 17.5 18.9 16.4 93 0.7 ENE 4 7 2 4 1011.3 1011.3 0.0
27/02:30am 17.3 19.4 16.2 93 0.7 CALM 0 6 0 3 1011.8 1011.8 0.0
27/02:00am 17.4 18.4 16.3 93 0.7 ESE 6 7 3 4 1012.3 1012.3 0.0
27/01:30am 17.1 18.0 16.0 93 0.6 S 6 9 3 5 1012.7 1012.7 0.0
27/01:00am 16.9 17.5 15.8 93 0.6 S 7 9 4 5 1013.2 1013.2 0.0
27/12:30am 16.7 17.2 15.6 93 0.6 S 7 9 4 5 1013.6 1013.6 0.0
27/12:00am 16.5 16.6 15.4 93 0.6 SSW 9 9 5 5 1013.9 1013.9 0.0
 
Date/Time
EDT
Temp
°C
App
Temp
°C
Dew
Point
°C
Rel
Hum
%
Delta-T
°C
Wind Press
QNH
hPa
Press
MSL
hPa
Rain since
9am
mm
Dir  Spd
km/h
Gust
km/h
Spd
kts
Gust
kts
26/11:30pm 16.2 16.5 14.9 92 0.7 SSW 7 9 4 5 1014.4 1014.4 0.0
26/11:00pm 16.7 17.1 15.4 92 0.8 SSW 7 9 4 5 1014.5 1014.5 0.0
26/10:30pm 17.1 17.7 15.8 92 0.8 SSW 7 7 4 4 1014.7 1014.7 0.0
26/10:00pm 17.2 17.8 15.7 91 0.9 SSW 7 7 4 4 1015.1 1015.1 0.0
26/09:30pm 16.8 16.8 15.2 90 0.9 SSW 9 9 5 5 1015.3 1015.3 0.0
26/09:00pm 17.5 18.3 15.8 90 1.0 SSE 6 7 3 4 1015.0 1015.0 0.0
26/08:30pm 17.7 18.5 15.9 89 1.1 E 6 6 3 3 1014.9 1014.9 0.0
26/08:00pm 17.7 17.9 15.7 88 1.2 SE 9 11 5 6 1014.7 1014.7 0.0
26/07:30pm 18.0 18.5 15.6 86 1.4 SE 7 9 4 5 1014.7 1014.7 0.0
26/07:00pm 18.6 19.2 15.7 83 1.7 ESE 7 9 4 5 1014.7 1014.7 0.0
26/06:30pm 19.5 19.8 16.0 80 2.1 ESE 9 11 5 6 1014.3 1014.3 0.0
26/06:00pm 19.9 19.9 16.2 79 2.2 SE 11 13 6 7 1014.3 1014.3 0.0
26/05:30pm 20.6 21.0 16.2 76 2.6 SE 9 13 5 7 1014.3 1014.3 0.0
26/05:00pm 21.4 21.5 16.4 73 3.0 SSE 11 11 6 6 1014.2 1014.2 0.0
26/04:30pm 21.3 21.3 16.3 73 3.0 SE 11 15 6 8 1014.2 1014.2 0.0
26/04:00pm 21.7 22.1 16.2 71 3.3 ESE 9 13 5 7 1014.3 1014.3 0.0
26/03:30pm 21.9 21.9 16.2 70 3.4 ESE 11 13 6 7 1014.4 1014.4 0.0
26/03:00pm 21.6 20.8 15.2 67 3.8 ESE 13 13 7 7 1014.7 1014.7 0.0
26/02:30pm 21.1 20.8 15.4 70 3.4 ESE 11 15 6 8 1014.8 1014.8 0.0
26/02:00pm 21.1 20.6 15.9 72 3.1 SE 13 17 7 9 1015.0 1015.0 0.0
26/01:30pm 21.5 20.7 16.2 72 3.2 ESE 15 19 8 10 1015.2 1015.2 0.0
26/01:00pm 21.4 20.5 15.9 71 3.3 SE 15 19 8 10 1015.2 1015.2 0.0
26/12:30pm 22.3 21.3 15.6 66 4.0 SE 15 19 8 10 1015.6 1015.6 0.0
26/12:00pm 22.4 21.7 15.5 65 4.1 SSE 13 17 7 9 1015.8 1015.8 0.0
26/11:30am 21.3 20.5 15.2 68 3.6 SSE 13 17 7 9 1015.7 1015.7 0.0
26/11:00am 20.8 20.6 15.6 72 3.1 SSE 11 13 6 7 1015.3 1015.3 0.0
26/10:30am 19.7 19.1 14.7 73 2.9 SSE 11 13 6 7 1015.2 1015.2 0.0
26/10:00am 19.2 19.0 15.7 80 2.1 S 11 11 6 6 1015.2 1015.2 0.0
26/09:30am 18.5 18.4 15.9 85 1.5 S 11 15 6 8 1014.9 1014.9 0.0
26/09:00am 17.4 16.8 15.6 89 1.1 SSW 13 13 7 7 1014.9 1014.9 0.4
26/08:30am 16.6 15.8 15.1 91 0.9 SSW 13 15 7 8 1014.6 1014.6 0.4
26/08:00am 15.9 15.3 14.6 92 0.7 SSW 11 13 6 7 1014.4 1014.4 0.4
26/07:30am 15.3 14.2 14.2 93 0.6 SSW 13 15 7 8 1014.2 1014.2 0.4
26/07:00am 15.2 14.4 14.1 93 0.6 SSW 11 13 6 7 1013.7 1013.7 0.4

Other Formats:

Comma delimited format used in spreadsheet applications
http://www.bom.gov.au/fwo/IDT60801/IDT60801.94983.axf

JavaScript Object Notation format (JSON) in row-major order
http://www.bom.gov.au/fwo/IDT60801/IDT60801.94983.json